createdAt,value
2022-08-16T00:00:56.000Z,20.8
2022-08-16T00:02:12.000Z,20.8
2022-08-16T00:03:28.000Z,20.8
2022-08-16T00:04:44.000Z,20.8
2022-08-16T00:06:00.000Z,20.9
2022-08-16T00:07:17.000Z,20.9
2022-08-16T00:08:32.000Z,20.9
2022-08-16T00:09:48.000Z,20.9
2022-08-16T00:11:04.000Z,20.9
2022-08-16T00:12:21.000Z,21
2022-08-16T00:13:37.000Z,21
2022-08-16T00:14:53.000Z,21
2022-08-16T00:16:09.000Z,21
2022-08-16T00:17:26.000Z,21
2022-08-16T00:18:42.000Z,21.1
2022-08-16T00:19:58.000Z,21.1
2022-08-16T00:21:14.000Z,21.1
2022-08-16T00:22:30.000Z,21.1
2022-08-16T00:23:47.000Z,21.1
2022-08-16T00:25:02.000Z,21.1
2022-08-16T00:26:18.000Z,21.1
2022-08-16T00:27:34.000Z,21.1
2022-08-16T00:28:51.000Z,21
2022-08-16T00:30:07.000Z,21
2022-08-16T00:31:23.000Z,21
2022-08-16T00:32:39.000Z,21
2022-08-16T00:33:56.000Z,20.9
2022-08-16T00:35:12.000Z,20.9
2022-08-16T00:36:28.000Z,20.9
2022-08-16T00:37:44.000Z,20.9
2022-08-16T00:39:01.000Z,20.9
2022-08-16T00:40:17.000Z,20.9
2022-08-16T00:41:32.000Z,21
2022-08-16T00:42:48.000Z,21
2022-08-16T00:44:04.000Z,21
2022-08-16T00:45:19.000Z,21
2022-08-16T00:46:35.000Z,21
2022-08-16T00:47:50.000Z,21
2022-08-16T00:49:06.000Z,21
2022-08-16T00:50:22.000Z,21
2022-08-16T00:51:38.000Z,21
2022-08-16T00:52:54.000Z,21
2022-08-16T00:54:10.000Z,21
2022-08-16T00:55:27.000Z,21
2022-08-16T00:56:43.000Z,21
2022-08-16T00:57:59.000Z,21
2022-08-16T00:59:15.000Z,21
2022-08-16T01:00:32.000Z,21
2022-08-16T01:01:48.000Z,20.9
2022-08-16T01:03:04.000Z,20.9
2022-08-16T01:04:20.000Z,20.9
2022-08-16T01:05:36.000Z,20.9
2022-08-16T01:06:52.000Z,20.9
2022-08-16T01:08:08.000Z,20.8
2022-08-16T01:09:24.000Z,20.8
2022-08-16T01:10:41.000Z,20.8
2022-08-16T01:11:57.000Z,20.8
2022-08-16T01:13:13.000Z,20.7
2022-08-16T01:14:28.000Z,20.7
2022-08-16T01:15:43.000Z,20.7
2022-08-16T01:17:00.000Z,20.7
2022-08-16T01:18:16.000Z,20.7
2022-08-16T01:19:32.000Z,20.7
2022-08-16T01:20:48.000Z,20.7
2022-08-16T01:22:05.000Z,20.7
2022-08-16T01:23:21.000Z,20.7
2022-08-16T01:24:37.000Z,20.7
2022-08-16T01:25:53.000Z,20.7
2022-08-16T01:27:10.000Z,20.7
2022-08-16T01:28:26.000Z,20.7
2022-08-16T01:29:42.000Z,20.8
2022-08-16T01:30:58.000Z,20.8
2022-08-16T01:32:14.000Z,20.8
2022-08-16T01:33:30.000Z,20.8
2022-08-16T01:34:46.000Z,20.8
2022-08-16T01:36:02.000Z,20.8
2022-08-16T01:37:18.000Z,20.8
2022-08-16T01:38:35.000Z,20.8
2022-08-16T01:39:51.000Z,20.9
2022-08-16T01:41:06.000Z,20.9
2022-08-16T01:42:21.000Z,20.9
2022-08-16T01:43:38.000Z,20.9
2022-08-16T01:44:53.000Z,21
2022-08-16T01:46:08.000Z,21
2022-08-16T01:47:24.000Z,21.1
2022-08-16T01:48:40.000Z,21.1
2022-08-16T01:49:55.000Z,21.1
2022-08-16T01:51:11.000Z,21.1
2022-08-16T01:52:27.000Z,21.1
2022-08-16T01:53:44.000Z,21.1
2022-08-16T01:55:00.000Z,21
2022-08-16T01:56:16.000Z,21
2022-08-16T01:57:32.000Z,21
2022-08-16T01:58:49.000Z,20.9
2022-08-16T02:00:05.000Z,20.9
2022-08-16T02:01:21.000Z,20.8
2022-08-16T02:02:37.000Z,20.8
2022-08-16T02:03:54.000Z,20.8
2022-08-16T02:05:10.000Z,20.7
2022-08-16T02:06:25.000Z,20.7
2022-08-16T02:07:40.000Z,20.7
2022-08-16T02:08:57.000Z,20.7
2022-08-16T02:10:13.000Z,20.7
2022-08-16T02:11:29.000Z,20.6
2022-08-16T02:12:45.000Z,20.6
2022-08-16T02:14:01.000Z,20.6
2022-08-16T02:15:17.000Z,20.7
2022-08-16T02:16:32.000Z,20.7
2022-08-16T02:17:48.000Z,20.7
2022-08-16T02:19:04.000Z,20.7
2022-08-16T02:20:20.000Z,20.7
2022-08-16T02:21:35.000Z,20.7
2022-08-16T02:22:51.000Z,20.7
2022-08-16T02:24:07.000Z,20.7
2022-08-16T02:25:24.000Z,20.7
2022-08-16T02:26:40.000Z,20.7
2022-08-16T02:27:56.000Z,20.7
2022-08-16T02:29:12.000Z,20.7
2022-08-16T02:30:29.000Z,20.7
2022-08-16T02:31:45.000Z,20.7
2022-08-16T02:33:01.000Z,20.7
2022-08-16T02:34:17.000Z,20.7
2022-08-16T02:35:34.000Z,20.7
2022-08-16T02:36:50.000Z,20.7
2022-08-16T02:38:05.000Z,20.7
2022-08-16T02:39:21.000Z,20.7
2022-08-16T02:40:37.000Z,20.7
2022-08-16T02:41:54.000Z,20.7
2022-08-16T02:43:10.000Z,20.8
2022-08-16T02:44:26.000Z,20.8
2022-08-16T02:45:42.000Z,20.9
2022-08-16T02:46:58.000Z,20.9
2022-08-16T02:48:13.000Z,20.9
2022-08-16T02:49:28.000Z,20.9
2022-08-16T02:50:43.000Z,20.8
2022-08-16T02:52:00.000Z,20.8
2022-08-16T02:53:16.000Z,20.8
2022-08-16T02:54:32.000Z,20.7
2022-08-16T02:55:48.000Z,20.7
2022-08-16T02:57:05.000Z,20.7
2022-08-16T02:58:21.000Z,20.7
2022-08-16T02:59:37.000Z,20.6
2022-08-16T03:00:53.000Z,20.6
2022-08-16T03:02:10.000Z,20.6
2022-08-16T03:03:26.000Z,20.7
2022-08-16T03:04:42.000Z,20.7
2022-08-16T03:05:58.000Z,20.6
2022-08-16T03:07:13.000Z,20.6
2022-08-16T03:08:30.000Z,20.6
2022-08-16T03:09:46.000Z,20.6
2022-08-16T03:11:02.000Z,20.6
2022-08-16T03:12:18.000Z,20.5
2022-08-16T03:13:35.000Z,20.5
2022-08-16T03:14:51.000Z,20.5
2022-08-16T03:16:06.000Z,20.5
2022-08-16T03:17:21.000Z,20.5
2022-08-16T03:18:38.000Z,20.5
2022-08-16T03:19:53.000Z,20.4
2022-08-16T03:21:08.000Z,20.5
2022-08-16T03:22:24.000Z,20.5
2022-08-16T03:23:41.000Z,20.5
2022-08-16T03:24:57.000Z,20.5
2022-08-16T03:26:13.000Z,20.5
2022-08-16T03:27:29.000Z,20.4
2022-08-16T03:28:46.000Z,20.4
2022-08-16T03:30:02.000Z,20.5
2022-08-16T03:31:18.000Z,20.5
2022-08-16T03:32:34.000Z,20.5
2022-08-16T03:33:50.000Z,20.5
2022-08-16T03:35:07.000Z,20.5
2022-08-16T03:36:23.000Z,20.5
2022-08-16T03:37:38.000Z,20.5
2022-08-16T03:38:54.000Z,20.5
2022-08-16T03:40:11.000Z,20.5
2022-08-16T03:41:27.000Z,20.5
2022-08-16T03:42:43.000Z,20.5
2022-08-16T03:43:59.000Z,20.6
2022-08-16T03:45:16.000Z,20.6
2022-08-16T03:46:31.000Z,20.6
2022-08-16T03:47:46.000Z,20.6
2022-08-16T03:49:02.000Z,20.6
2022-08-16T03:50:19.000Z,20.6
2022-08-16T03:51:35.000Z,20.5
2022-08-16T03:52:50.000Z,20.5
2022-08-16T03:54:05.000Z,20.5
2022-08-16T03:55:22.000Z,20.5
2022-08-16T03:56:38.000Z,20.5
2022-08-16T03:57:54.000Z,20.5
2022-08-16T03:59:10.000Z,20.5
2022-08-16T04:00:26.000Z,20.5
2022-08-16T04:01:43.000Z,20.5
2022-08-16T04:02:59.000Z,20.4
2022-08-16T04:04:15.000Z,20.4
2022-08-16T04:05:31.000Z,20.4
2022-08-16T04:06:48.000Z,20.4
2022-08-16T04:08:04.000Z,20.4
2022-08-16T04:09:20.000Z,20.4
2022-08-16T04:10:35.000Z,20.4
2022-08-16T04:11:52.000Z,20.3
2022-08-16T04:13:08.000Z,20.3
2022-08-16T04:14:24.000Z,20.3
2022-08-16T04:15:40.000Z,20.3
2022-08-16T04:16:57.000Z,20.3
2022-08-16T04:18:13.000Z,20.3
2022-08-16T04:19:28.000Z,20.3
2022-08-16T04:20:43.000Z,20.3
2022-08-16T04:21:59.000Z,20.3
2022-08-16T04:23:14.000Z,20.3
2022-08-16T04:24:30.000Z,20.3
2022-08-16T04:25:46.000Z,20.3
2022-08-16T04:27:03.000Z,20.2
2022-08-16T04:28:19.000Z,20.2
2022-08-16T04:29:35.000Z,20.1
2022-08-16T04:30:51.000Z,20.1
2022-08-16T04:32:07.000Z,20.1
2022-08-16T04:33:24.000Z,20
2022-08-16T04:34:40.000Z,20
2022-08-16T04:35:56.000Z,20
2022-08-16T04:37:12.000Z,20
2022-08-16T04:38:29.000Z,20
2022-08-16T04:39:44.000Z,20
2022-08-16T04:41:00.000Z,19.9
2022-08-16T04:42:16.000Z,19.9
2022-08-16T04:43:33.000Z,19.8
2022-08-16T04:44:49.000Z,19.8
2022-08-16T04:46:05.000Z,19.8
2022-08-16T04:47:21.000Z,19.8
2022-08-16T04:48:37.000Z,19.8
2022-08-16T04:49:52.000Z,19.8
2022-08-16T04:51:08.000Z,19.8
2022-08-16T04:52:23.000Z,19.8
2022-08-16T04:53:40.000Z,19.8
2022-08-16T04:54:55.000Z,19.8
2022-08-16T04:56:11.000Z,19.8
2022-08-16T04:57:27.000Z,19.8
2022-08-16T04:58:43.000Z,19.8
2022-08-16T05:00:00.000Z,19.7
2022-08-16T05:01:16.000Z,19.7
2022-08-16T05:02:32.000Z,19.7
2022-08-16T05:03:48.000Z,19.7
2022-08-16T05:05:05.000Z,19.7
2022-08-16T05:06:21.000Z,19.7
2022-08-16T05:07:37.000Z,19.8
2022-08-16T05:08:53.000Z,19.8
2022-08-16T05:10:10.000Z,19.8
2022-08-16T05:11:25.000Z,19.8
2022-08-16T05:12:41.000Z,19.8
2022-08-16T05:13:57.000Z,19.7
2022-08-16T05:15:14.000Z,19.8
2022-08-16T05:16:30.000Z,19.8
2022-08-16T05:17:46.000Z,19.8
2022-08-16T05:19:02.000Z,19.9
2022-08-16T05:20:18.000Z,19.9
2022-08-16T05:21:35.000Z,20
2022-08-16T05:22:51.000Z,20
2022-08-16T05:24:07.000Z,20
2022-08-16T05:25:23.000Z,20
2022-08-16T05:26:40.000Z,20
2022-08-16T05:27:55.000Z,20.1
2022-08-16T05:29:11.000Z,20.1
2022-08-16T05:30:27.000Z,20.2
2022-08-16T05:31:44.000Z,20.2
2022-08-16T05:33:00.000Z,20.3
2022-08-16T05:34:16.000Z,20.3
2022-08-16T05:35:32.000Z,20.3
2022-08-16T05:36:48.000Z,20.4
2022-08-16T05:38:05.000Z,20.4
2022-08-16T05:39:21.000Z,20.4
2022-08-16T05:40:37.000Z,20.4
2022-08-16T05:41:53.000Z,20.5
2022-08-16T05:43:10.000Z,20.5
2022-08-16T05:44:25.000Z,20.6
2022-08-16T05:45:41.000Z,20.6
2022-08-16T05:46:57.000Z,20.6
2022-08-16T05:48:14.000Z,20.7
2022-08-16T05:49:30.000Z,20.7
2022-08-16T05:50:46.000Z,20.7
2022-08-16T05:52:02.000Z,20.7
2022-08-16T05:53:19.000Z,20.7
2022-08-16T05:54:35.000Z,20.8
2022-08-16T05:55:51.000Z,20.8
2022-08-16T05:57:07.000Z,20.8
2022-08-16T05:58:23.000Z,20.9
2022-08-16T05:59:40.000Z,20.9
2022-08-16T06:00:55.000Z,20.9
2022-08-16T06:02:11.000Z,20.9
2022-08-16T06:03:27.000Z,20.9
2022-08-16T06:04:44.000Z,20.9
2022-08-16T06:06:00.000Z,20.8
2022-08-16T06:07:16.000Z,20.7
2022-08-16T06:08:32.000Z,20.7
2022-08-16T06:09:49.000Z,20.7
2022-08-16T06:11:05.000Z,20.7
2022-08-16T06:12:21.000Z,20.6
2022-08-16T06:13:37.000Z,20.6
2022-08-16T06:14:54.000Z,20.6
2022-08-16T06:16:10.000Z,20.6
2022-08-16T06:17:25.000Z,20.6
2022-08-16T06:18:41.000Z,20.6
2022-08-16T06:19:57.000Z,20.5
2022-08-16T06:21:13.000Z,20.6
2022-08-16T06:22:28.000Z,20.6
2022-08-16T06:23:44.000Z,20.6
2022-08-16T06:25:00.000Z,20.6
2022-08-16T06:26:15.000Z,20.6
2022-08-16T06:27:31.000Z,20.6
2022-08-16T06:28:47.000Z,20.6
2022-08-16T06:30:03.000Z,20.7
2022-08-16T06:31:20.000Z,20.8
2022-08-16T06:32:36.000Z,20.8
2022-08-16T06:33:52.000Z,20.9
2022-08-16T06:35:08.000Z,21
2022-08-16T06:36:25.000Z,21
2022-08-16T06:37:41.000Z,21.1
2022-08-16T06:38:57.000Z,21.1
2022-08-16T06:40:13.000Z,21.2
2022-08-16T06:41:30.000Z,21.3
2022-08-16T06:42:45.000Z,21.4
2022-08-16T06:44:01.000Z,21.4
2022-08-16T06:45:17.000Z,21.5
2022-08-16T06:46:33.000Z,21.6
2022-08-16T06:47:50.000Z,21.6
2022-08-16T06:49:06.000Z,21.7
2022-08-16T06:50:22.000Z,21.7
2022-08-16T06:51:37.000Z,21.8
2022-08-16T06:52:53.000Z,21.8
2022-08-16T06:54:09.000Z,21.8
2022-08-16T06:55:24.000Z,21.9
2022-08-16T06:56:39.000Z,21.9
2022-08-16T06:57:56.000Z,22
2022-08-16T06:59:12.000Z,22.1
2022-08-16T07:00:28.000Z,22.1
2022-08-16T07:01:44.000Z,22.2
2022-08-16T07:03:01.000Z,22.2
2022-08-16T07:04:17.000Z,22.2
2022-08-16T07:05:33.000Z,22.2
2022-08-16T07:06:49.000Z,22.2
2022-08-16T07:08:06.000Z,22.3
2022-08-16T07:09:22.000Z,22.3
2022-08-16T07:10:38.000Z,22.4
2022-08-16T07:11:54.000Z,22.4
2022-08-16T07:13:10.000Z,22.5
2022-08-16T07:14:26.000Z,22.6
2022-08-16T07:15:42.000Z,22.6
2022-08-16T07:16:58.000Z,22.7
2022-08-16T07:18:14.000Z,22.8
2022-08-16T07:19:31.000Z,22.8
2022-08-16T07:20:47.000Z,22.9
2022-08-16T07:22:02.000Z,23
2022-08-16T07:23:17.000Z,23
2022-08-16T07:24:33.000Z,23.1
2022-08-16T07:25:48.000Z,23
2022-08-16T07:27:04.000Z,23.1
2022-08-16T07:28:20.000Z,23.1
2022-08-16T07:29:37.000Z,23.1
2022-08-16T07:30:53.000Z,23.1
2022-08-16T07:32:09.000Z,23.1
2022-08-16T07:33:25.000Z,23.1
2022-08-16T07:34:42.000Z,23.2
2022-08-16T07:35:58.000Z,23.3
2022-08-16T07:37:14.000Z,23.3
2022-08-16T07:38:30.000Z,23.3
2022-08-16T07:39:47.000Z,23.3
2022-08-16T07:41:03.000Z,23.3
2022-08-16T07:42:18.000Z,23.4
2022-08-16T07:43:34.000Z,23.4
2022-08-16T07:44:50.000Z,23.5
2022-08-16T07:46:07.000Z,23.5
2022-08-16T07:47:23.000Z,23.5
2022-08-16T07:48:39.000Z,23.6
2022-08-16T07:49:55.000Z,23.6
2022-08-16T07:51:12.000Z,23.6
2022-08-16T07:52:28.000Z,23.7
2022-08-16T07:53:44.000Z,23.8
2022-08-16T07:55:00.000Z,23.8
2022-08-16T07:56:16.000Z,23.9
2022-08-16T07:57:31.000Z,23.8
2022-08-16T07:58:46.000Z,23.8
2022-08-16T08:00:01.000Z,23.8
2022-08-16T08:01:18.000Z,23.9
2022-08-16T08:02:34.000Z,24
2022-08-16T08:03:50.000Z,24.1
2022-08-16T08:05:06.000Z,24.1
2022-08-16T08:06:23.000Z,24.1
2022-08-16T08:07:39.000Z,24.3
2022-08-16T08:08:55.000Z,24.4
2022-08-16T08:10:11.000Z,24.4
2022-08-16T08:11:27.000Z,24.4
2022-08-16T08:12:44.000Z,24.4
2022-08-16T08:14:00.000Z,24.4
2022-08-16T08:15:16.000Z,24.4
2022-08-16T08:16:31.000Z,24.5
2022-08-16T08:17:48.000Z,24.6
2022-08-16T08:19:04.000Z,24.7
2022-08-16T08:20:20.000Z,24.8
2022-08-16T08:21:36.000Z,24.8
2022-08-16T08:22:53.000Z,24.8
2022-08-16T08:24:09.000Z,24.7
2022-08-16T08:25:25.000Z,24.7
2022-08-16T08:26:41.000Z,24.6
2022-08-16T08:27:58.000Z,24.6
2022-08-16T08:29:14.000Z,24.6
2022-08-16T08:30:30.000Z,24.7
2022-08-16T08:31:46.000Z,24.8
2022-08-16T08:33:01.000Z,25
2022-08-16T08:34:18.000Z,25.1
2022-08-16T08:35:34.000Z,25.2
2022-08-16T08:36:50.000Z,25.2
2022-08-16T08:38:06.000Z,25.3
2022-08-16T08:39:23.000Z,25.4
2022-08-16T08:40:39.000Z,25.4
2022-08-16T08:41:55.000Z,25.5
2022-08-16T08:43:11.000Z,25.6
2022-08-16T08:44:28.000Z,25.6
2022-08-16T08:45:44.000Z,25.7
2022-08-16T08:47:00.000Z,25.7
2022-08-16T08:48:16.000Z,25.7
2022-08-16T08:49:32.000Z,25.7
2022-08-16T08:50:48.000Z,25.7
2022-08-16T08:52:04.000Z,25.7
2022-08-16T08:53:20.000Z,25.8
2022-08-16T08:54:36.000Z,25.7
2022-08-16T08:55:53.000Z,25.6
2022-08-16T08:57:09.000Z,25.7
2022-08-16T08:58:25.000Z,25.7
2022-08-16T08:59:41.000Z,25.8
2022-08-16T09:00:58.000Z,25.9
2022-08-16T09:02:14.000Z,26
2022-08-16T09:03:30.000Z,26
2022-08-16T09:04:46.000Z,26
2022-08-16T09:06:02.000Z,26.1
2022-08-16T09:07:18.000Z,26.2
2022-08-16T09:08:34.000Z,26.2
2022-08-16T09:09:49.000Z,26.2
2022-08-16T09:11:05.000Z,26.1
2022-08-16T09:12:20.000Z,26.1
2022-08-16T09:13:35.000Z,26.2
2022-08-16T09:14:51.000Z,26.3
2022-08-16T09:16:08.000Z,26.4
2022-08-16T09:17:24.000Z,26.5
2022-08-16T09:18:40.000Z,26.4
2022-08-16T09:19:56.000Z,26.3
2022-08-16T09:21:12.000Z,26.4
2022-08-16T09:22:29.000Z,26.3
2022-08-16T09:23:45.000Z,26.4
2022-08-16T09:25:01.000Z,26.5
2022-08-16T09:26:17.000Z,26.5
2022-08-16T09:27:34.000Z,26.5
2022-08-16T09:28:50.000Z,26.5
2022-08-16T09:30:05.000Z,26.7
2022-08-16T09:31:21.000Z,26.7
2022-08-16T09:32:38.000Z,26.7
2022-08-16T09:33:54.000Z,26.6
2022-08-16T09:35:10.000Z,26.6
2022-08-16T09:36:26.000Z,26.5
2022-08-16T09:37:43.000Z,26.5
2022-08-16T09:38:58.000Z,26.5
2022-08-16T09:40:13.000Z,26.5
2022-08-16T09:41:28.000Z,26.7
2022-08-16T09:42:44.000Z,26.9
2022-08-16T09:44:00.000Z,27
2022-08-16T09:45:16.000Z,27.2
2022-08-16T09:46:32.000Z,27.3
2022-08-16T09:47:48.000Z,27.3
2022-08-16T09:49:05.000Z,27.4
2022-08-16T09:50:21.000Z,27.4
2022-08-16T09:51:37.000Z,27.4
2022-08-16T09:52:53.000Z,27.2
2022-08-16T09:54:10.000Z,27.3
2022-08-16T09:55:26.000Z,27.4
2022-08-16T09:56:42.000Z,27.4
2022-08-16T09:57:58.000Z,27.6
2022-08-16T09:59:14.000Z,27.6
2022-08-16T10:00:30.000Z,27.7
2022-08-16T10:01:46.000Z,27.8
2022-08-16T10:03:02.000Z,27.9
2022-08-16T10:04:19.000Z,28
2022-08-16T10:05:35.000Z,27.8
2022-08-16T10:06:51.000Z,27.7
2022-08-16T10:08:06.000Z,27.7
2022-08-16T10:09:22.000Z,27.8
2022-08-16T10:10:38.000Z,27.8
2022-08-16T10:11:54.000Z,27.9
2022-08-16T10:13:10.000Z,27.9
2022-08-16T10:14:25.000Z,27.9
2022-08-16T10:15:41.000Z,28
2022-08-16T10:16:57.000Z,28
2022-08-16T10:18:13.000Z,28.1
2022-08-16T10:19:29.000Z,28.2
2022-08-16T10:20:46.000Z,28.3
2022-08-16T10:22:02.000Z,28.4
2022-08-16T10:23:18.000Z,28.3
2022-08-16T10:24:34.000Z,28.3
2022-08-16T10:25:51.000Z,28.5
2022-08-16T10:27:07.000Z,28.5
2022-08-16T10:28:23.000Z,28.6
2022-08-16T10:29:39.000Z,28.7
2022-08-16T10:30:56.000Z,28.8
2022-08-16T10:32:11.000Z,28.9
2022-08-16T10:33:27.000Z,29
2022-08-16T10:34:43.000Z,28.9
2022-08-16T10:35:59.000Z,28.8
2022-08-16T10:37:15.000Z,28.7
2022-08-16T10:38:31.000Z,28.7
2022-08-16T10:39:47.000Z,28.8
2022-08-16T10:41:02.000Z,29
2022-08-16T10:42:18.000Z,29.2
2022-08-16T10:43:34.000Z,29.2
2022-08-16T10:44:50.000Z,29
2022-08-16T10:46:05.000Z,28.7
2022-08-16T10:47:21.000Z,28.6
2022-08-16T10:48:37.000Z,28.5
2022-08-16T10:49:53.000Z,28.4
2022-08-16T10:51:09.000Z,28.4
2022-08-16T10:52:26.000Z,28.5
2022-08-16T10:53:42.000Z,28.6
2022-08-16T10:54:58.000Z,28.7
2022-08-16T10:56:14.000Z,28.8
2022-08-16T10:57:31.000Z,29
2022-08-16T10:58:47.000Z,29.2
2022-08-16T11:00:03.000Z,29.3
2022-08-16T11:01:19.000Z,29.4
2022-08-16T11:02:36.000Z,29.5
2022-08-16T11:03:51.000Z,29.6
2022-08-16T11:05:07.000Z,29.7
2022-08-16T11:06:23.000Z,29.6
2022-08-16T11:07:39.000Z,29.2
2022-08-16T11:08:56.000Z,29.2
2022-08-16T11:10:12.000Z,29.1
2022-08-16T11:11:28.000Z,29.1
2022-08-16T11:12:44.000Z,29
2022-08-16T11:14:01.000Z,29.1
2022-08-16T11:15:17.000Z,29.2
2022-08-16T11:16:33.000Z,29.2
2022-08-16T11:17:49.000Z,29.2
2022-08-16T11:19:06.000Z,29.4
2022-08-16T11:20:21.000Z,29.6
2022-08-16T11:21:37.000Z,29.6
2022-08-16T11:22:53.000Z,29.5
2022-08-16T11:24:10.000Z,29.5
2022-08-16T11:25:26.000Z,29.6
2022-08-16T11:26:42.000Z,29.6
2022-08-16T11:27:58.000Z,29.7
2022-08-16T11:29:14.000Z,29.6
2022-08-16T11:30:31.000Z,29.5
2022-08-16T11:31:47.000Z,29.6
2022-08-16T11:33:03.000Z,29.5
2022-08-16T11:34:19.000Z,29.7
2022-08-16T11:35:36.000Z,29.6
2022-08-16T11:36:51.000Z,29.5
2022-08-16T11:38:07.000Z,29.5
2022-08-16T11:39:23.000Z,29.3
2022-08-16T11:40:40.000Z,29.3
2022-08-16T11:41:56.000Z,29.3
2022-08-16T11:43:12.000Z,29.5
2022-08-16T11:44:28.000Z,29.7
2022-08-16T11:45:45.000Z,30
2022-08-16T11:47:01.000Z,30
2022-08-16T11:48:17.000Z,30
2022-08-16T11:49:33.000Z,29.8
2022-08-16T11:50:49.000Z,29.8
2022-08-16T11:52:06.000Z,29.8
2022-08-16T11:53:21.000Z,29.9
2022-08-16T11:54:37.000Z,30.1
2022-08-16T11:55:53.000Z,30
2022-08-16T11:57:10.000Z,30
2022-08-16T11:58:26.000Z,30.2
2022-08-16T11:59:42.000Z,30.3
2022-08-16T12:00:58.000Z,30.5
2022-08-16T12:02:15.000Z,30.5
2022-08-16T12:03:31.000Z,30.5
2022-08-16T12:04:47.000Z,30.7
2022-08-16T12:06:03.000Z,30.9
2022-08-16T12:07:20.000Z,30.8
2022-08-16T12:08:36.000Z,30.8
2022-08-16T12:09:51.000Z,30.9
2022-08-16T12:11:07.000Z,31
2022-08-16T12:12:22.000Z,31.2
2022-08-16T12:13:38.000Z,31
2022-08-16T12:14:53.000Z,31
2022-08-16T12:16:08.000Z,31.2
2022-08-16T12:17:24.000Z,31.3
2022-08-16T12:18:41.000Z,31
2022-08-16T12:19:57.000Z,30.9
2022-08-16T12:21:13.000Z,30.8
2022-08-16T12:22:29.000Z,30.8
2022-08-16T12:23:46.000Z,30.8
2022-08-16T12:25:02.000Z,30.9
2022-08-16T12:26:18.000Z,30.8
2022-08-16T12:27:34.000Z,30.8
2022-08-16T12:28:51.000Z,30.9
2022-08-16T12:30:07.000Z,30.4
2022-08-16T12:31:23.000Z,30.4
2022-08-16T12:32:38.000Z,30.4
2022-08-16T12:33:55.000Z,30.4
2022-08-16T12:35:11.000Z,30.2
2022-08-16T12:36:27.000Z,30.4
2022-08-16T12:37:43.000Z,30.5
2022-08-16T12:38:59.000Z,30.5
2022-08-16T12:40:16.000Z,30.6
2022-08-16T12:41:31.000Z,30.6
2022-08-16T12:42:46.000Z,30.4
2022-08-16T12:44:02.000Z,30.5
2022-08-16T12:45:18.000Z,30.5
2022-08-16T12:46:33.000Z,30.6
2022-08-16T12:47:49.000Z,30.6
2022-08-16T12:49:05.000Z,30.7
2022-08-16T12:50:22.000Z,30.8
2022-08-16T12:51:38.000Z,30.9
2022-08-16T12:52:54.000Z,31
2022-08-16T12:54:10.000Z,31
2022-08-16T12:55:27.000Z,30.8
2022-08-16T12:56:43.000Z,30.8
2022-08-16T12:57:59.000Z,31.1
2022-08-16T12:59:15.000Z,31.5
2022-08-16T13:00:32.000Z,31.8
2022-08-16T13:01:48.000Z,31.7
2022-08-16T13:03:03.000Z,31.5
2022-08-16T13:04:19.000Z,31.3
2022-08-16T13:05:35.000Z,31
2022-08-16T13:06:52.000Z,30.5
2022-08-16T13:08:08.000Z,30
2022-08-16T13:09:24.000Z,29.9
2022-08-16T13:10:40.000Z,30.3
2022-08-16T13:11:56.000Z,30.5
2022-08-16T13:13:11.000Z,30.6
2022-08-16T13:14:27.000Z,30.9
2022-08-16T13:15:43.000Z,31.3
2022-08-16T13:17:00.000Z,31.4
2022-08-16T13:18:15.000Z,31.4
2022-08-16T13:19:30.000Z,31.4
2022-08-16T13:20:46.000Z,31.5
2022-08-16T13:22:03.000Z,31.7
2022-08-16T13:23:19.000Z,31.6
2022-08-16T13:24:35.000Z,31.7
2022-08-16T13:25:51.000Z,32
2022-08-16T13:27:08.000Z,31.5
2022-08-16T13:28:24.000Z,31
2022-08-16T13:29:40.000Z,30.7
2022-08-16T13:30:56.000Z,30.6
2022-08-16T13:32:13.000Z,30.4
2022-08-16T13:33:29.000Z,30.2
2022-08-16T13:34:45.000Z,30
2022-08-16T13:36:00.000Z,30
2022-08-16T13:37:16.000Z,30
2022-08-16T13:38:33.000Z,30.4
2022-08-16T13:39:49.000Z,31.4
2022-08-16T13:41:05.000Z,31
2022-08-16T13:42:21.000Z,31.1
2022-08-16T13:43:38.000Z,31.6
2022-08-16T13:44:54.000Z,31.8
2022-08-16T13:46:10.000Z,32.4
2022-08-16T13:47:26.000Z,33.3
2022-08-16T13:48:43.000Z,33.4
2022-08-16T13:49:59.000Z,32.9
2022-08-16T13:51:15.000Z,32.1
2022-08-16T13:52:30.000Z,31.3
2022-08-16T13:53:47.000Z,30.8
2022-08-16T13:55:03.000Z,30.5
2022-08-16T13:56:19.000Z,30.5
2022-08-16T13:57:35.000Z,30.5
2022-08-16T13:58:51.000Z,30.5
2022-08-16T14:00:08.000Z,30.4
2022-08-16T14:01:23.000Z,30.3
2022-08-16T14:02:38.000Z,30.4
2022-08-16T14:03:53.000Z,30.4
2022-08-16T14:05:09.000Z,30.5
2022-08-16T14:06:25.000Z,30.4
2022-08-16T14:07:41.000Z,30.2
2022-08-16T14:08:57.000Z,30.2
2022-08-16T14:10:14.000Z,30.2
2022-08-16T14:11:30.000Z,30.2
2022-08-16T14:12:46.000Z,30.2
2022-08-16T14:14:02.000Z,30.4
2022-08-16T14:15:19.000Z,30.5
2022-08-16T14:16:35.000Z,30.5
2022-08-16T14:17:51.000Z,30.7
2022-08-16T14:19:07.000Z,30.8
2022-08-16T14:20:24.000Z,30.7
2022-08-16T14:21:39.000Z,30.6
2022-08-16T14:22:55.000Z,30.5
2022-08-16T14:24:11.000Z,30.5
2022-08-16T14:25:27.000Z,30.5
2022-08-16T14:26:44.000Z,30.5
2022-08-16T14:28:00.000Z,30.4
2022-08-16T14:29:16.000Z,30.3
2022-08-16T14:30:32.000Z,30.2
2022-08-16T14:31:49.000Z,30.3
2022-08-16T14:33:05.000Z,30.5
2022-08-16T14:34:21.000Z,30.5
2022-08-16T14:35:37.000Z,30.5
2022-08-16T14:36:54.000Z,30.5
2022-08-16T14:38:09.000Z,30.5
2022-08-16T14:39:24.000Z,30.4
2022-08-16T14:40:40.000Z,30.5
2022-08-16T14:41:56.000Z,30.6
2022-08-16T14:43:11.000Z,30.7
2022-08-16T14:44:27.000Z,30.7
2022-08-16T14:45:43.000Z,30.8
2022-08-16T14:47:00.000Z,30.9
2022-08-16T14:48:16.000Z,31
2022-08-16T14:49:32.000Z,31
2022-08-16T14:50:48.000Z,31
2022-08-16T14:52:04.000Z,30.9
2022-08-16T14:53:20.000Z,30.9
2022-08-16T14:54:36.000Z,31.7
2022-08-16T14:55:52.000Z,31.7
2022-08-16T14:57:08.000Z,31.4
2022-08-16T14:58:25.000Z,31.8
2022-08-16T14:59:41.000Z,32.5
2022-08-16T15:00:57.000Z,33.1
2022-08-16T15:02:13.000Z,33.7
2022-08-16T15:03:30.000Z,34.1
2022-08-16T15:04:46.000Z,34.7
2022-08-16T15:06:02.000Z,34.6
2022-08-16T15:07:18.000Z,34.7
2022-08-16T15:08:34.000Z,35.2
2022-08-16T15:09:50.000Z,34.9
2022-08-16T15:11:06.000Z,35.3
2022-08-16T15:12:22.000Z,34.8
2022-08-16T15:13:39.000Z,33.9
2022-08-16T15:14:55.000Z,33.3
2022-08-16T15:16:11.000Z,32.6
2022-08-16T15:17:27.000Z,32.3
2022-08-16T15:18:43.000Z,32.3
2022-08-16T15:20:00.000Z,32.3
2022-08-16T15:21:16.000Z,33.3
2022-08-16T15:22:32.000Z,33.8
2022-08-16T15:23:48.000Z,34
2022-08-16T15:25:04.000Z,34.1
2022-08-16T15:26:20.000Z,34.8
2022-08-16T15:27:36.000Z,35.4
2022-08-16T15:28:52.000Z,35.6
2022-08-16T15:30:09.000Z,34.9
2022-08-16T15:31:25.000Z,33.7
2022-08-16T15:32:41.000Z,33.4
2022-08-16T15:33:57.000Z,33.1
2022-08-16T15:35:14.000Z,32.9
2022-08-16T15:36:30.000Z,32.6
2022-08-16T15:37:46.000Z,32
2022-08-16T15:39:02.000Z,31.9
2022-08-16T15:40:18.000Z,31.6
2022-08-16T15:41:34.000Z,31.2
2022-08-16T15:42:50.000Z,31
2022-08-16T15:44:06.000Z,31
2022-08-16T15:45:22.000Z,31.2
2022-08-16T15:46:39.000Z,31.4
2022-08-16T15:47:55.000Z,32.2
2022-08-16T15:49:11.000Z,32.9
2022-08-16T15:50:27.000Z,33.4
2022-08-16T15:51:44.000Z,34.5
2022-08-16T15:53:00.000Z,35
2022-08-16T15:54:16.000Z,35.8
2022-08-16T15:55:32.000Z,36.4
2022-08-16T15:56:49.000Z,35.6
2022-08-16T15:58:04.000Z,35.3
2022-08-16T15:59:20.000Z,36.3
2022-08-16T16:00:36.000Z,36.5
2022-08-16T16:01:52.000Z,35.8
2022-08-16T16:03:09.000Z,35.7
2022-08-16T16:04:25.000Z,35.5
2022-08-16T16:05:41.000Z,35.8
2022-08-16T16:06:57.000Z,35
2022-08-16T16:08:13.000Z,34.9
2022-08-16T16:09:28.000Z,34.9
2022-08-16T16:10:43.000Z,34.1
2022-08-16T16:11:58.000Z,33.7
2022-08-16T16:13:15.000Z,33.4
2022-08-16T16:14:31.000Z,33
2022-08-16T16:15:47.000Z,32.5
2022-08-16T16:17:03.000Z,32.1
2022-08-16T16:18:20.000Z,31.8
2022-08-16T16:19:36.000Z,31.4
2022-08-16T16:20:52.000Z,31.3
2022-08-16T16:22:08.000Z,31.1
2022-08-16T16:23:25.000Z,31.3
2022-08-16T16:24:41.000Z,31.8
2022-08-16T16:25:57.000Z,32.3
2022-08-16T16:27:13.000Z,32.6
2022-08-16T16:28:29.000Z,32.8
2022-08-16T16:29:45.000Z,33.2
2022-08-16T16:31:01.000Z,33.6
2022-08-16T16:32:17.000Z,33.4
2022-08-16T16:33:33.000Z,33.4
2022-08-16T16:34:50.000Z,33.6
2022-08-16T16:36:06.000Z,34
2022-08-16T16:37:22.000Z,34.6
2022-08-16T16:38:38.000Z,34.4
2022-08-16T16:39:55.000Z,34.6
2022-08-16T16:41:11.000Z,34.7
2022-08-16T16:42:27.000Z,34.6
2022-08-16T16:43:43.000Z,34.3
2022-08-16T16:44:59.000Z,33.9
2022-08-16T16:46:15.000Z,33.3
2022-08-16T16:47:31.000Z,33.1
2022-08-16T16:48:47.000Z,32.8
2022-08-16T16:50:03.000Z,32.5
2022-08-16T16:51:20.000Z,32.1
2022-08-16T16:52:36.000Z,31.6
2022-08-16T16:53:52.000Z,31.2
2022-08-16T16:55:08.000Z,30.9
2022-08-16T16:56:25.000Z,30.7
2022-08-16T16:57:41.000Z,30.5
2022-08-16T16:58:57.000Z,30.2
2022-08-16T17:00:13.000Z,30.1